Bei Facebook empfehlenBei Twitter postenGoogle plusPinterest

Das Wetter im Erzgebirge am 19.11.2015

Wetter und Klima am 19.11.2015 Holzhau im Erzgebirge (630m ü.NN)
Letzte gemessene Temperatur und Uhrzeit der Messung23:45:00 Uhr5.90 °C
Temperatur (Maximum / Höchstwert) und Uhrzeit der Messung13:00:00 Uhr10.80 °C
Temperatur (Minimum / Tiefstwert) und Uhrzeit der Messung23:30:005.80 °C
Errechneter Absolutwert der Temperaturschwankungen zwischen Tmin und Tmax des Tages5.00 K
Errechnete Tagesmitteltemperatur7.95417 °C
Gesamt - Niederschlag des Tages (in flüssiger Form)9.84 Liter / m²
Luftdruck (Maximum / Höchstwert) und Zeitpunkt der Messung00:00:00 Uhr1010.30 hPa
Luftdruck (Minimum / Tiefstwert) und Zeitpunkt der Messung23:45:00 Uhr1003.60 hPa
Errechneter Absolutwert der Luftdruckschwankungen des Tages6.70 hPa
Höchste gemessene Windgeschwindigkeit und Uhrzeit der Messung12:30:00 Uhr183.60 km/h
Errechnete Windhäufigkeit in Relation zu den Messwerten des Tages65.62500 %
Niedrigste Windkühle (Windchill) und Zeitpunkt der Messung12:30:00 Uhr2.40 °C
Taupunkt (Maximum / Höchstwert) und Uhrzeit der Messung09:15:00 Uhr7.80 °C
Taupunkt (Minimum / Tiefstwert) und Uhrzeit der Messung01:00:003.30 °C
Anzahl der automatisch eingelesenen Messwerte 96

Detaillierte Wetter- und Klima- Messwerte für den 19.11.2015 in Holzhau im Erzgebirge (630m ü.NN)
ZeitTemperaturLuftdruckRel. LuftfeuchteWindWindrichtungWindchillTaupunktNiederschlag l/m²
23:45:005.90 °C1003.60 hPa93.00 %4.90 °C9.84
23:30:005.80 °C1004.10 hPa93.00 %4.80 °C9.84
23:15:005.80 °C1004.20 hPa93.00 %4.80 °C9.33
23:00:005.90 °C1004.40 hPa93.00 %4.90 °C8.81
22:45:005.90 °C1004.50 hPa93.00 %4.90 °C8.29
22:30:005.90 °C1005.20 hPa93.00 %4.90 °C7.77
22:15:005.90 °C1004.80 hPa93.00 %4.90 °C7.25
22:00:006.00 °C1005.50 hPa92.00 %4.80 °C7.25
21:45:006.10 °C1005.80 hPa92.00 %2.88 km/hSW6.10 °C4.90 °C6.74
21:30:005.90 °C1006.40 hPa92.00 %4.70 °C6.22
21:15:005.90 °C1006.40 hPa92.00 %7.56 km/hSSW4.30 °C4.70 °C5.70
21:00:006.00 °C1006.40 hPa91.00 %4.60 °C5.18
20:45:006.10 °C1006.60 hPa91.00 %4.70 °C5.18
20:30:006.20 °C1006.90 hPa91.00 %4.80 °C4.66
20:15:006.20 °C1006.90 hPa91.00 %4.80 °C4.66
20:00:006.30 °C1007.50 hPa91.00 %4.90 °C4.66
19:45:006.20 °C1007.90 hPa90.00 %5.40 km/hNW5.30 °C4.70 °C4.66
19:30:006.10 °C1007.90 hPa90.00 %9.36 km/hWSW4.10 °C4.60 °C4.15
19:15:006.10 °C1008.40 hPa89.00 %4.40 °C4.15
19:00:006.10 °C1008.40 hPa89.00 %9.36 km/hWNW4.10 °C4.40 °C4.15
18:45:006.10 °C1008.20 hPa88.00 %9.00 km/hW4.20 °C4.30 °C3.63
18:30:006.10 °C1008.40 hPa87.00 %3.96 km/hSW6.10 °C4.10 °C3.63
18:15:006.10 °C1008.50 hPa86.00 %2.88 km/hWNW6.10 °C3.90 °C3.11
18:00:006.40 °C1008.80 hPa84.00 %3.90 °C3.11
17:45:007.00 °C1008.80 hPa84.00 %10.44 km/hW5.00 °C4.50 °C3.11
17:30:007.60 °C1008.60 hPa84.00 %8.64 km/hWNW6.00 °C5.10 °C3.11
17:15:008.10 °C1008.50 hPa84.00 %15.84 km/hNW5.50 °C5.60 °C3.11
17:00:008.30 °C1008.20 hPa83.00 %10.08 km/hNW6.60 °C5.60 °C3.11
16:45:008.50 °C1008.00 hPa82.00 %5.04 km/hWNW8.00 °C5.60 °C3.11
16:30:008.80 °C1007.90 hPa81.00 %7.92 km/hWNW7.60 °C5.70 °C3.11
16:15:008.80 °C1007.90 hPa81.00 %9.00 km/hSW7.40 °C5.70 °C3.11
16:00:008.90 °C1007.90 hPa81.00 %5.80 °C3.11
15:45:009.00 °C1008.00 hPa81.00 %9.00 km/hSW7.60 °C5.90 °C3.11
15:30:009.10 °C1007.90 hPa81.00 %8.64 km/hSW7.80 °C6.00 °C3.11
15:15:009.10 °C1007.80 hPa82.00 %9.00 km/hW7.70 °C6.20 °C3.11
15:00:009.30 °C1007.90 hPa82.00 %8.28 km/hSW8.10 °C6.40 °C3.11
14:45:009.30 °C1007.90 hPa83.00 %9.00 km/hNW8.00 °C6.60 °C3.11
14:30:009.40 °C1007.80 hPa83.00 %6.70 °C3.11
14:15:009.40 °C1008.10 hPa83.00 %14.40 km/hNW7.30 °C6.70 °C3.11
14:00:009.60 °C1008.10 hPa82.00 %8.28 km/hWNW8.50 °C6.70 °C3.11
13:45:0010.10 °C1007.90 hPa80.00 %12.60 km/hNNW8.30 °C6.80 °C3.11
13:30:0010.70 °C1008.00 hPa77.00 %9.00 km/hW9.60 °C6.80 °C3.11
13:15:0010.70 °C1008.10 hPa75.00 %12.24 km/hWNW9.10 °C6.50 °C3.11
13:00:0010.80 °C1008.10 hPa76.00 %9.36 km/hWNW9.70 °C6.70 °C3.11
12:45:0010.50 °C1008.00 hPa77.00 %10.08 km/hW9.20 °C6.60 °C3.11
12:30:0010.10 °C1008.00 hPa78.00 %183.60 km/hN2.40 °C6.40 °C3.11
12:15:009.60 °C1008.10 hPa80.00 %8.28 km/hNW8.50 °C6.30 °C3.11
12:00:009.60 °C1008.40 hPa81.00 %12.24 km/hWSW7.80 °C6.50 °C3.11
11:45:009.80 °C1008.50 hPa82.00 %10.08 km/hWNW8.40 °C6.90 °C3.11
11:30:009.80 °C1008.60 hPa84.00 %12.60 km/hW8.00 °C7.20 °C3.11
11:15:009.80 °C1008.60 hPa85.00 %13.32 km/hNW7.90 °C7.40 °C3.11
11:00:009.60 °C1008.50 hPa86.00 %4.68 km/hW9.60 °C7.40 °C3.11
10:45:009.50 °C1008.50 hPa87.00 %6.48 km/hW8.80 °C7.40 °C3.11
10:30:009.60 °C1008.20 hPa88.00 %6.48 km/hW8.90 °C7.70 °C3.11
10:15:009.40 °C1008.40 hPa89.00 %20.16 km/hSW6.60 °C7.70 °C3.11
10:00:009.20 °C1008.10 hPa90.00 %6.48 km/hNW8.40 °C7.60 °C3.11
09:45:009.10 °C1007.90 hPa91.00 %10.08 km/hWNW7.50 °C7.70 °C3.11
09:30:009.00 °C1007.90 hPa91.00 %4.68 km/hSW9.00 °C7.60 °C3.11
09:15:009.00 °C1008.00 hPa92.00 %6.12 km/hW8.30 °C7.80 °C3.11
09:00:008.90 °C1008.10 hPa93.00 %14.40 km/hWSW6.60 °C7.80 °C3.11
08:45:008.60 °C1008.00 hPa93.00 %11.88 km/hWSW6.60 °C7.50 °C3.11
08:30:008.40 °C1007.40 hPa92.00 %7.20 °C3.11
08:15:008.30 °C1007.20 hPa92.00 %11.16 km/hNW6.40 °C7.10 °C3.11
08:00:008.10 °C1007.10 hPa92.00 %4.68 km/hWSW8.10 °C6.90 °C3.11
07:45:008.00 °C1007.10 hPa92.00 %8.64 km/hW6.50 °C6.80 °C3.11
07:30:007.90 °C1007.30 hPa91.00 %6.50 °C2.59
07:15:008.20 °C1007.70 hPa91.00 %6.80 °C2.59
07:00:007.90 °C1006.80 hPa90.00 %6.40 °C1.56
06:45:007.90 °C1007.00 hPa90.00 %5.40 km/hSW7.20 °C6.40 °C1.04
06:30:007.90 °C1007.00 hPa89.00 %6.20 °C1.04
06:15:008.20 °C1007.00 hPa89.00 %6.50 °C1.04
06:00:008.70 °C1007.60 hPa88.00 %12.24 km/hWNW6.70 °C6.80 °C0.52
05:45:009.30 °C1007.70 hPa86.00 %7.10 °C 
05:30:0010.00 °C1007.70 hPa83.00 %6.12 km/hSSW9.40 °C7.30 °C 
05:15:0010.10 °C1007.30 hPa83.00 %38.52 km/hWNW6.20 °C7.30 °C 
05:00:009.60 °C1007.60 hPa85.00 %21.96 km/hW6.70 °C7.20 °C 
04:45:009.20 °C1007.70 hPa86.00 %3.60 km/hSSW9.20 °C7.00 °C 
04:30:008.90 °C1007.80 hPa87.00 %6.90 °C 
04:15:008.60 °C1007.90 hPa86.00 %10.44 km/hWNW6.90 °C6.40 °C 
04:00:008.50 °C1008.40 hPa86.00 %7.92 km/hW7.30 °C6.30 °C 
03:45:008.40 °C1008.70 hPa86.00 %7.92 km/hWSW7.10 °C6.20 °C 
03:30:007.90 °C1008.70 hPa85.00 %1.44 km/hSW7.90 °C5.50 °C 
03:15:007.90 °C1008.50 hPa84.00 %13.68 km/hW5.50 °C5.40 °C 
03:00:007.90 °C1008.80 hPa84.00 %5.04 km/hWNW7.40 °C5.40 °C 
02:45:007.60 °C1008.80 hPa84.00 %5.04 km/hW7.00 °C5.10 °C 
02:30:007.60 °C1009.10 hPa84.00 %5.10 °C 
02:15:007.40 °C1009.00 hPa84.00 %11.16 km/hS5.30 °C4.90 °C 
02:00:006.90 °C1009.30 hPa84.00 %3.96 km/hWNW6.90 °C4.40 °C 
01:45:006.80 °C1009.40 hPa85.00 %2.52 km/hW6.80 °C4.50 °C 
01:30:006.50 °C1009.30 hPa85.00 %4.20 °C 
01:15:006.10 °C1009.30 hPa85.00 %9.00 km/hS4.20 °C3.80 °C 
01:00:005.80 °C1009.40 hPa84.00 %3.30 °C 
00:45:005.90 °C1009.80 hPa84.00 %3.40 °C 
00:30:006.10 °C1010.20 hPa84.00 %3.60 °C 
00:15:006.30 °C1010.20 hPa83.00 %3.60 °C 
00:00:006.20 °C1010.30 hPa84.00 %3.70 °C 

Permanenter Link zu dieser Seite: Wetter im Erzgebirge am 19.11.2015
Performance-Info: Die Erstellung der Seite / Statistik(en) / Tabelle(n) erforderte 5 Datenbankserver-Abfrage(n) und dauerte 69 Millisekunden. (Dieser Messwert ist von der Gesamt-Auslastung des Servers abhängig.)
Erzgebirge - Wetter | Erzgebirge - Wetter (Mobilgeräte) | Komplette Klimadatenbank